sensor_id;sensor_type;location;lat;lon;timestamp;P1;durP1;ratioP1;P2;durP2;ratioP2
20739;SDS011;10530;49.968;19.844;2022-10-19T00:00:33;10.40;;;3.83;;
20739;SDS011;10530;49.968;19.844;2022-10-19T00:05:36;10.55;;;4.05;;
20739;SDS011;10530;49.968;19.844;2022-10-19T00:10:39;10.27;;;4.03;;
20739;SDS011;10530;49.968;19.844;2022-10-19T00:15:42;10.87;;;3.87;;
20739;SDS011;10530;49.968;19.844;2022-10-19T00:20:46;11.75;;;4.78;;
20739;SDS011;10530;49.968;19.844;2022-10-19T00:25:55;10.43;;;4.63;;
20739;SDS011;10530;49.968;19.844;2022-10-19T00:31:02;12.55;;;5.00;;
20739;SDS011;10530;49.968;19.844;2022-10-19T00:36:12;12.43;;;4.57;;
20739;SDS011;10530;49.968;19.844;2022-10-19T00:41:19;12.03;;;4.50;;
20739;SDS011;10530;49.968;19.844;2022-10-19T00:46:23;10.18;;;4.13;;
20739;SDS011;10530;49.968;19.844;2022-10-19T00:51:27;10.27;;;3.70;;
20739;SDS011;10530;49.968;19.844;2022-10-19T00:56:32;8.75;;;3.85;;
20739;SDS011;10530;49.968;19.844;2022-10-19T01:01:35;10.45;;;4.70;;
20739;SDS011;10530;49.968;19.844;2022-10-19T01:06:38;10.67;;;4.60;;
20739;SDS011;10530;49.968;19.844;2022-10-19T01:11:45;12.63;;;4.45;;
20739;SDS011;10530;49.968;19.844;2022-10-19T01:38:39;10.63;;;4.35;;
20739;SDS011;10530;49.968;19.844;2022-10-19T01:49:03;10.90;;;3.85;;
20739;SDS011;10530;49.968;19.844;2022-10-19T01:54:17;12.23;;;3.63;;
20739;SDS011;10530;49.968;19.844;2022-10-19T01:59:21;8.90;;;3.63;;
20739;SDS011;10530;49.968;19.844;2022-10-19T02:04:25;10.73;;;3.83;;
20739;SDS011;10530;49.968;19.844;2022-10-19T02:09:28;11.03;;;3.87;;
20739;SDS011;10530;49.968;19.844;2022-10-19T02:14:31;11.45;;;3.70;;
20739;SDS011;10530;49.968;19.844;2022-10-19T02:19:41;9.20;;;3.65;;
20739;SDS011;10530;49.968;19.844;2022-10-19T02:24:44;9.73;;;3.50;;
20739;SDS011;10530;49.968;19.844;2022-10-19T02:29:47;9.10;;;3.50;;
20739;SDS011;10530;49.968;19.844;2022-10-19T02:34:49;9.67;;;3.67;;
20739;SDS011;10530;49.968;19.844;2022-10-19T02:39:52;10.45;;;3.83;;
20739;SDS011;10530;49.968;19.844;2022-10-19T02:44:56;11.38;;;4.25;;
20739;SDS011;10530;49.968;19.844;2022-10-19T02:50:06;11.53;;;4.50;;
20739;SDS011;10530;49.968;19.844;2022-10-19T02:55:09;12.25;;;4.72;;
20739;SDS011;10530;49.968;19.844;2022-10-19T03:00:12;14.63;;;5.43;;
20739;SDS011;10530;49.968;19.844;2022-10-19T03:05:15;14.55;;;5.00;;
20739;SDS011;10530;49.968;19.844;2022-10-19T03:10:18;16.02;;;5.75;;
20739;SDS011;10530;49.968;19.844;2022-10-19T03:15:21;13.67;;;5.17;;
20739;SDS011;10530;49.968;19.844;2022-10-19T03:20:28;17.08;;;6.10;;
20739;SDS011;10530;49.968;19.844;2022-10-19T03:25:30;17.53;;;5.60;;
20739;SDS011;10530;49.968;19.844;2022-10-19T03:30:33;17.98;;;6.18;;
20739;SDS011;10530;49.968;19.844;2022-10-19T03:35:36;17.65;;;6.65;;
20739;SDS011;10530;49.968;19.844;2022-10-19T03:40:39;18.93;;;6.83;;
20739;SDS011;10530;49.968;19.844;2022-10-19T03:45:44;20.05;;;7.00;;
20739;SDS011;10530;49.968;19.844;2022-10-19T03:50:47;17.07;;;6.57;;
20739;SDS011;10530;49.968;19.844;2022-10-19T03:56:03;17.30;;;6.95;;
20739;SDS011;10530;49.968;19.844;2022-10-19T04:01:15;23.45;;;7.35;;
20739;SDS011;10530;49.968;19.844;2022-10-19T04:06:22;17.40;;;6.20;;
20739;SDS011;10530;49.968;19.844;2022-10-19T04:11:28;20.98;;;7.97;;
20739;SDS011;10530;49.968;19.844;2022-10-19T04:16:31;19.00;;;7.63;;
20739;SDS011;10530;49.968;19.844;2022-10-19T04:21:35;22.50;;;7.75;;
20739;SDS011;10530;49.968;19.844;2022-10-19T04:26:40;26.25;;;9.27;;
20739;SDS011;10530;49.968;19.844;2022-10-19T04:31:45;21.73;;;8.60;;
20739;SDS011;10530;49.968;19.844;2022-10-19T04:36:51;25.27;;;9.27;;
20739;SDS011;10530;49.968;19.844;2022-10-19T04:41:54;26.90;;;8.77;;
20739;SDS011;10530;49.968;19.844;2022-10-19T04:46:57;24.65;;;8.70;;
20739;SDS011;10530;49.968;19.844;2022-10-19T04:51:59;22.02;;;7.97;;
20739;SDS011;10530;49.968;19.844;2022-10-19T04:57:02;21.47;;;7.77;;
20739;SDS011;10530;49.968;19.844;2022-10-19T05:02:05;25.88;;;8.05;;
20739;SDS011;10530;49.968;19.844;2022-10-19T05:07:08;25.03;;;8.63;;
20739;SDS011;10530;49.968;19.844;2022-10-19T05:12:11;26.10;;;7.63;;
20739;SDS011;10530;49.968;19.844;2022-10-19T05:17:14;25.80;;;8.65;;
20739;SDS011;10530;49.968;19.844;2022-10-19T05:22:17;19.17;;;7.30;;
20739;SDS011;10530;49.968;19.844;2022-10-19T05:27:20;25.85;;;9.23;;
20739;SDS011;10530;49.968;19.844;2022-10-19T05:32:23;23.50;;;8.30;;
20739;SDS011;10530;49.968;19.844;2022-10-19T05:37:26;18.02;;;6.63;;
20739;SDS011;10530;49.968;19.844;2022-10-19T05:42:29;20.75;;;7.20;;
20739;SDS011;10530;49.968;19.844;2022-10-19T05:47:32;19.90;;;7.27;;
20739;SDS011;10530;49.968;19.844;2022-10-19T05:52:36;17.55;;;6.90;;
20739;SDS011;10530;49.968;19.844;2022-10-19T05:57:39;21.47;;;7.03;;
20739;SDS011;10530;49.968;19.844;2022-10-19T06:02:42;18.90;;;7.20;;
20739;SDS011;10530;49.968;19.844;2022-10-19T06:07:45;18.08;;;6.40;;
20739;SDS011;10530;49.968;19.844;2022-10-19T06:12:48;20.70;;;7.07;;
20739;SDS011;10530;49.968;19.844;2022-10-19T06:17:51;16.17;;;6.20;;
20739;SDS011;10530;49.968;19.844;2022-10-19T06:22:54;16.67;;;6.83;;
20739;SDS011;10530;49.968;19.844;2022-10-19T06:27:57;15.07;;;5.55;;
20739;SDS011;10530;49.968;19.844;2022-10-19T06:33:00;16.17;;;6.43;;
20739;SDS011;10530;49.968;19.844;2022-10-19T06:38:04;17.90;;;5.93;;
20739;SDS011;10530;49.968;19.844;2022-10-19T06:43:07;16.65;;;6.40;;
20739;SDS011;10530;49.968;19.844;2022-10-19T06:48:10;18.50;;;6.37;;
20739;SDS011;10530;49.968;19.844;2022-10-19T06:53:12;15.20;;;5.85;;
20739;SDS011;10530;49.968;19.844;2022-10-19T06:58:15;17.73;;;6.80;;
20739;SDS011;10530;49.968;19.844;2022-10-19T07:03:18;18.97;;;7.53;;
20739;SDS011;10530;49.968;19.844;2022-10-19T07:08:21;22.35;;;7.65;;
20739;SDS011;10530;49.968;19.844;2022-10-19T07:13:26;23.23;;;7.80;;
20739;SDS011;10530;49.968;19.844;2022-10-19T07:18:30;21.50;;;7.00;;
20739;SDS011;10530;49.968;19.844;2022-10-19T07:23:34;20.40;;;6.65;;
20739;SDS011;10530;49.968;19.844;2022-10-19T07:28:39;15.13;;;5.63;;
20739;SDS011;10530;49.968;19.844;2022-10-19T07:33:43;18.10;;;6.95;;
20739;SDS011;10530;49.968;19.844;2022-10-19T07:38:46;17.07;;;6.33;;
20739;SDS011;10530;49.968;19.844;2022-10-19T07:43:49;15.50;;;6.03;;
20739;SDS011;10530;49.968;19.844;2022-10-19T07:48:52;21.98;;;6.88;;
20739;SDS011;10530;49.968;19.844;2022-10-19T07:53:56;24.17;;;8.87;;
20739;SDS011;10530;49.968;19.844;2022-10-19T07:59:00;24.98;;;8.60;;
20739;SDS011;10530;49.968;19.844;2022-10-19T08:04:04;23.77;;;8.83;;
20739;SDS011;10530;49.968;19.844;2022-10-19T08:09:27;18.80;;;7.53;;
20739;SDS011;10530;49.968;19.844;2022-10-19T08:14:49;22.58;;;7.97;;
20739;SDS011;10530;49.968;19.844;2022-10-19T08:19:54;22.03;;;8.03;;
20739;SDS011;10530;49.968;19.844;2022-10-19T08:24:57;23.10;;;8.05;;
20739;SDS011;10530;49.968;19.844;2022-10-19T08:30:00;21.00;;;7.13;;
20739;SDS011;10530;49.968;19.844;2022-10-19T08:35:02;20.67;;;7.57;;
20739;SDS011;10530;49.968;19.844;2022-10-19T08:40:16;13.55;;;5.60;;
20739;SDS011;10530;49.968;19.844;2022-10-19T08:45:24;18.20;;;6.03;;
20739;SDS011;10530;49.968;19.844;2022-10-19T08:50:40;18.15;;;6.50;;
20739;SDS011;10530;49.968;19.844;2022-10-19T09:01:42;13.95;;;5.53;;
20739;SDS011;10530;49.968;19.844;2022-10-19T09:12:11;12.27;;;4.60;;
20739;SDS011;10530;49.968;19.844;2022-10-19T09:17:17;15.60;;;5.80;;
20739;SDS011;10530;49.968;19.844;2022-10-19T09:22:26;9.80;;;3.63;;
20739;SDS011;10530;49.968;19.844;2022-10-19T09:27:34;16.20;;;4.55;;
20739;SDS011;10530;49.968;19.844;2022-10-19T09:32:41;8.13;;;3.58;;
20739;SDS011;10530;49.968;19.844;2022-10-19T09:37:44;12.43;;;4.57;;
20739;SDS011;10530;49.968;19.844;2022-10-19T09:42:50;12.32;;;4.80;;
20739;SDS011;10530;49.968;19.844;2022-10-19T09:47:58;9.27;;;4.20;;
20739;SDS011;10530;49.968;19.844;2022-10-19T09:53:16;12.00;;;4.32;;
20739;SDS011;10530;49.968;19.844;2022-10-19T09:58:23;12.68;;;5.28;;
20739;SDS011;10530;49.968;19.844;2022-10-19T10:03:36;9.20;;;4.60;;
20739;SDS011;10530;49.968;19.844;2022-10-19T10:08:45;9.20;;;4.20;;
20739;SDS011;10530;49.968;19.844;2022-10-19T10:14:03;9.23;;;3.73;;
20739;SDS011;10530;49.968;19.844;2022-10-19T10:19:28;9.18;;;3.50;;
20739;SDS011;10530;49.968;19.844;2022-10-19T10:24:32;15.30;;;3.80;;
20739;SDS011;10530;49.968;19.844;2022-10-19T10:29:36;10.83;;;3.70;;
20739;SDS011;10530;49.968;19.844;2022-10-19T10:34:47;10.32;;;2.88;;
20739;SDS011;10530;49.968;19.844;2022-10-19T10:40:03;11.33;;;2.90;;
20739;SDS011;10530;49.968;19.844;2022-10-19T10:45:50;8.68;;;2.83;;
20739;SDS011;10530;49.968;19.844;2022-10-19T10:50:39;8.73;;;2.80;;
20739;SDS011;10530;49.968;19.844;2022-10-19T10:55:42;11.80;;;3.30;;
20739;SDS011;10530;49.968;19.844;2022-10-19T11:00:57;12.60;;;3.42;;
20739;SDS011;10530;49.968;19.844;2022-10-19T11:06:08;10.77;;;2.57;;
20739;SDS011;10530;49.968;19.844;2022-10-19T11:16:21;7.35;;;2.17;;
20739;SDS011;10530;49.968;19.844;2022-10-19T11:21:37;4.47;;;1.70;;
20739;SDS011;10530;49.968;19.844;2022-10-19T11:27:10;7.68;;;2.42;;
20739;SDS011;10530;49.968;19.844;2022-10-19T11:32:20;2.57;;;0.70;;
20739;SDS011;10530;49.968;19.844;2022-10-19T11:43:27;4.70;;;1.58;;
20739;SDS011;10530;49.968;19.844;2022-10-19T12:10:05;6.13;;;1.60;;
20739;SDS011;10530;49.968;19.844;2022-10-19T12:15:24;4.73;;;1.50;;
20739;SDS011;10530;49.968;19.844;2022-10-19T12:20:42;4.57;;;1.70;;
20739;SDS011;10530;49.968;19.844;2022-10-19T12:25:49;3.80;;;1.47;;
20739;SDS011;10530;49.968;19.844;2022-10-19T12:30:53;5.57;;;1.50;;
20739;SDS011;10530;49.968;19.844;2022-10-19T12:41:46;3.40;;;1.33;;
20739;SDS011;10530;49.968;19.844;2022-10-19T12:46:54;3.58;;;1.40;;
20739;SDS011;10530;49.968;19.844;2022-10-19T12:52:02;4.97;;;1.43;;
20739;SDS011;10530;49.968;19.844;2022-10-19T13:02:41;5.43;;;1.58;;
20739;SDS011;10530;49.968;19.844;2022-10-19T13:07:46;4.77;;;1.63;;
20739;SDS011;10530;49.968;19.844;2022-10-19T13:12:52;6.35;;;1.60;;
20739;SDS011;10530;49.968;19.844;2022-10-19T13:17:55;6.97;;;2.03;;
20739;SDS011;10530;49.968;19.844;2022-10-19T13:38:34;4.55;;;1.67;;
20739;SDS011;10530;49.968;19.844;2022-10-19T13:44:00;7.13;;;1.90;;
20739;SDS011;10530;49.968;19.844;2022-10-19T13:55:12;6.95;;;2.22;;
20739;SDS011;10530;49.968;19.844;2022-10-19T14:00:37;8.10;;;2.40;;
20739;SDS011;10530;49.968;19.844;2022-10-19T14:06:01;9.10;;;2.50;;
20739;SDS011;10530;49.968;19.844;2022-10-19T14:16:20;8.73;;;2.55;;
20739;SDS011;10530;49.968;19.844;2022-10-19T14:21:30;6.95;;;2.90;;
20739;SDS011;10530;49.968;19.844;2022-10-19T14:26:34;8.80;;;2.70;;
20739;SDS011;10530;49.968;19.844;2022-10-19T14:31:37;8.18;;;2.70;;
20739;SDS011;10530;49.968;19.844;2022-10-19T14:36:45;11.17;;;2.70;;
20739;SDS011;10530;49.968;19.844;2022-10-19T14:41:51;7.60;;;2.90;;
20739;SDS011;10530;49.968;19.844;2022-10-19T14:46:56;10.10;;;3.00;;
20739;SDS011;10530;49.968;19.844;2022-10-19T14:52:02;7.17;;;2.63;;
20739;SDS011;10530;49.968;19.844;2022-10-19T14:57:28;8.10;;;2.50;;
20739;SDS011;10530;49.968;19.844;2022-10-19T15:02:37;7.67;;;2.50;;
20739;SDS011;10530;49.968;19.844;2022-10-19T15:07:46;6.97;;;2.55;;
20739;SDS011;10530;49.968;19.844;2022-10-19T15:12:50;6.47;;;2.20;;
20739;SDS011;10530;49.968;19.844;2022-10-19T15:23:23;5.68;;;2.33;;
20739;SDS011;10530;49.968;19.844;2022-10-19T15:28:35;6.53;;;2.60;;
20739;SDS011;10530;49.968;19.844;2022-10-19T15:33:47;6.18;;;2.78;;
20739;SDS011;10530;49.968;19.844;2022-10-19T15:39:02;9.90;;;2.78;;
20739;SDS011;10530;49.968;19.844;2022-10-19T15:44:33;5.40;;;2.37;;
20739;SDS011;10530;49.968;19.844;2022-10-19T15:54:47;11.30;;;3.93;;
20739;SDS011;10530;49.968;19.844;2022-10-19T15:59:51;9.63;;;3.50;;
20739;SDS011;10530;49.968;19.844;2022-10-19T16:04:55;8.20;;;3.25;;
20739;SDS011;10530;49.968;19.844;2022-10-19T16:09:58;11.13;;;3.70;;
20739;SDS011;10530;49.968;19.844;2022-10-19T16:15:01;8.05;;;3.65;;
20739;SDS011;10530;49.968;19.844;2022-10-19T16:20:04;11.53;;;3.47;;
20739;SDS011;10530;49.968;19.844;2022-10-19T16:25:08;9.52;;;3.40;;
20739;SDS011;10530;49.968;19.844;2022-10-19T16:30:11;8.65;;;3.50;;
20739;SDS011;10530;49.968;19.844;2022-10-19T16:35:15;9.03;;;3.67;;
20739;SDS011;10530;49.968;19.844;2022-10-19T16:40:18;10.52;;;3.88;;
20739;SDS011;10530;49.968;19.844;2022-10-19T16:45:21;8.37;;;3.97;;
20739;SDS011;10530;49.968;19.844;2022-10-19T16:50:23;12.65;;;4.70;;
20739;SDS011;10530;49.968;19.844;2022-10-19T16:55:27;10.05;;;3.85;;
20739;SDS011;10530;49.968;19.844;2022-10-19T17:00:30;8.63;;;3.23;;
20739;SDS011;10530;49.968;19.844;2022-10-19T17:05:36;12.88;;;4.65;;
20739;SDS011;10530;49.968;19.844;2022-10-19T17:10:39;9.70;;;4.30;;
20739;SDS011;10530;49.968;19.844;2022-10-19T17:15:42;11.80;;;4.25;;
20739;SDS011;10530;49.968;19.844;2022-10-19T17:20:45;11.65;;;3.67;;
20739;SDS011;10530;49.968;19.844;2022-10-19T17:25:48;11.00;;;3.50;;
20739;SDS011;10530;49.968;19.844;2022-10-19T17:30:51;8.38;;;2.88;;
20739;SDS011;10530;49.968;19.844;2022-10-19T17:35:54;7.87;;;3.13;;
20739;SDS011;10530;49.968;19.844;2022-10-19T17:41:07;6.90;;;2.60;;
20739;SDS011;10530;49.968;19.844;2022-10-19T17:46:13;7.75;;;2.75;;
20739;SDS011;10530;49.968;19.844;2022-10-19T17:51:19;8.90;;;3.20;;
20739;SDS011;10530;49.968;19.844;2022-10-19T17:56:25;9.07;;;3.53;;
20739;SDS011;10530;49.968;19.844;2022-10-19T18:01:28;12.23;;;4.07;;
20739;SDS011;10530;49.968;19.844;2022-10-19T18:06:32;13.52;;;4.05;;
20739;SDS011;10530;49.968;19.844;2022-10-19T18:11:41;12.55;;;3.90;;
20739;SDS011;10530;49.968;19.844;2022-10-19T18:16:46;9.03;;;3.57;;
20739;SDS011;10530;49.968;19.844;2022-10-19T18:21:48;10.43;;;3.67;;
20739;SDS011;10530;49.968;19.844;2022-10-19T18:26:51;11.10;;;4.23;;
20739;SDS011;10530;49.968;19.844;2022-10-19T18:31:54;9.55;;;4.05;;
20739;SDS011;10530;49.968;19.844;2022-10-19T18:36:57;9.52;;;4.05;;
20739;SDS011;10530;49.968;19.844;2022-10-19T18:42:00;11.17;;;4.30;;
20739;SDS011;10530;49.968;19.844;2022-10-19T18:47:03;10.80;;;5.13;;
20739;SDS011;10530;49.968;19.844;2022-10-19T18:52:06;14.00;;;5.03;;
20739;SDS011;10530;49.968;19.844;2022-10-19T18:57:09;9.57;;;4.35;;
20739;SDS011;10530;49.968;19.844;2022-10-19T19:02:12;11.35;;;5.25;;
20739;SDS011;10530;49.968;19.844;2022-10-19T19:07:23;15.93;;;6.37;;
20739;SDS011;10530;49.968;19.844;2022-10-19T19:12:26;17.17;;;6.95;;
20739;SDS011;10530;49.968;19.844;2022-10-19T19:17:29;18.37;;;6.40;;
20739;SDS011;10530;49.968;19.844;2022-10-19T19:22:32;15.50;;;6.65;;
20739;SDS011;10530;49.968;19.844;2022-10-19T19:27:35;18.40;;;6.60;;
20739;SDS011;10530;49.968;19.844;2022-10-19T19:32:39;14.13;;;5.80;;
20739;SDS011;10530;49.968;19.844;2022-10-19T19:37:42;14.75;;;5.72;;
20739;SDS011;10530;49.968;19.844;2022-10-19T19:42:45;13.27;;;5.60;;
20739;SDS011;10530;49.968;19.844;2022-10-19T19:47:48;13.88;;;5.43;;
20739;SDS011;10530;49.968;19.844;2022-10-19T19:52:51;11.98;;;5.63;;
20739;SDS011;10530;49.968;19.844;2022-10-19T19:57:54;14.43;;;5.10;;
20739;SDS011;10530;49.968;19.844;2022-10-19T20:02:57;12.35;;;5.13;;
20739;SDS011;10530;49.968;19.844;2022-10-19T20:08:00;14.13;;;5.23;;
20739;SDS011;10530;49.968;19.844;2022-10-19T20:13:03;15.05;;;5.97;;
20739;SDS011;10530;49.968;19.844;2022-10-19T20:18:06;12.73;;;5.00;;
20739;SDS011;10530;49.968;19.844;2022-10-19T20:23:09;15.70;;;6.23;;
20739;SDS011;10530;49.968;19.844;2022-10-19T20:28:12;12.43;;;5.82;;
20739;SDS011;10530;49.968;19.844;2022-10-19T20:33:15;12.37;;;5.43;;
20739;SDS011;10530;49.968;19.844;2022-10-19T20:38:18;16.38;;;6.20;;
20739;SDS011;10530;49.968;19.844;2022-10-19T20:43:20;16.65;;;5.88;;
20739;SDS011;10530;49.968;19.844;2022-10-19T20:48:24;17.33;;;5.80;;
20739;SDS011;10530;49.968;19.844;2022-10-19T20:53:27;18.23;;;6.80;;
20739;SDS011;10530;49.968;19.844;2022-10-19T20:58:29;17.00;;;6.70;;
20739;SDS011;10530;49.968;19.844;2022-10-19T21:03:33;15.95;;;6.43;;
20739;SDS011;10530;49.968;19.844;2022-10-19T21:08:36;16.20;;;6.90;;
20739;SDS011;10530;49.968;19.844;2022-10-19T21:13:39;16.97;;;6.87;;
20739;SDS011;10530;49.968;19.844;2022-10-19T21:18:43;18.25;;;6.70;;
20739;SDS011;10530;49.968;19.844;2022-10-19T21:23:48;17.77;;;6.93;;
20739;SDS011;10530;49.968;19.844;2022-10-19T21:28:52;17.77;;;6.78;;
20739;SDS011;10530;49.968;19.844;2022-10-19T21:33:56;17.20;;;7.05;;
20739;SDS011;10530;49.968;19.844;2022-10-19T21:38:58;17.03;;;6.77;;
20739;SDS011;10530;49.968;19.844;2022-10-19T21:44:02;17.77;;;7.30;;
20739;SDS011;10530;49.968;19.844;2022-10-19T21:49:04;21.57;;;8.27;;
20739;SDS011;10530;49.968;19.844;2022-10-19T21:54:10;18.60;;;7.78;;
20739;SDS011;10530;49.968;19.844;2022-10-19T21:59:14;24.23;;;8.30;;
20739;SDS011;10530;49.968;19.844;2022-10-19T22:04:18;17.37;;;7.50;;
20739;SDS011;10530;49.968;19.844;2022-10-19T22:09:21;21.67;;;8.30;;
20739;SDS011;10530;49.968;19.844;2022-10-19T22:14:24;21.63;;;8.07;;
20739;SDS011;10530;49.968;19.844;2022-10-19T22:19:28;18.90;;;7.85;;
20739;SDS011;10530;49.968;19.844;2022-10-19T22:24:31;17.70;;;7.45;;
20739;SDS011;10530;49.968;19.844;2022-10-19T22:29:35;19.87;;;7.87;;
20739;SDS011;10530;49.968;19.844;2022-10-19T22:34:38;18.73;;;7.63;;
20739;SDS011;10530;49.968;19.844;2022-10-19T22:39:41;19.23;;;7.50;;
20739;SDS011;10530;49.968;19.844;2022-10-19T22:44:44;22.10;;;7.60;;
20739;SDS011;10530;49.968;19.844;2022-10-19T22:49:47;17.23;;;7.68;;
20739;SDS011;10530;49.968;19.844;2022-10-19T22:54:49;18.27;;;6.70;;
20739;SDS011;10530;49.968;19.844;2022-10-19T22:59:52;17.83;;;6.53;;
20739;SDS011;10530;49.968;19.844;2022-10-19T23:04:55;22.17;;;7.67;;
20739;SDS011;10530;49.968;19.844;2022-10-19T23:09:58;18.40;;;7.03;;
20739;SDS011;10530;49.968;19.844;2022-10-19T23:15:00;14.40;;;6.10;;
20739;SDS011;10530;49.968;19.844;2022-10-19T23:20:03;16.23;;;6.37;;
20739;SDS011;10530;49.968;19.844;2022-10-19T23:25:07;19.75;;;6.53;;
20739;SDS011;10530;49.968;19.844;2022-10-19T23:30:10;27.07;;;7.93;;
20739;SDS011;10530;49.968;19.844;2022-10-19T23:35:13;23.38;;;8.07;;
20739;SDS011;10530;49.968;19.844;2022-10-19T23:40:15;17.58;;;7.45;;
20739;SDS011;10530;49.968;19.844;2022-10-19T23:45:18;18.53;;;6.97;;
20739;SDS011;10530;49.968;19.844;2022-10-19T23:50:21;16.45;;;7.00;;
20739;SDS011;10530;49.968;19.844;2022-10-19T23:55:23;19.67;;;7.07;;
